sensor_id;sensor_type;location;lat;lon;timestamp;P1;durP1;ratioP1;P2;durP2;ratioP2
20758;SDS011;10539;53.686;9.158;2022-10-16T00:01:36;12.60;;;5.03;;
20758;SDS011;10539;53.686;9.158;2022-10-16T00:04:01;12.87;;;5.10;;
20758;SDS011;10539;53.686;9.158;2022-10-16T00:06:28;10.67;;;5.17;;
20758;SDS011;10539;53.686;9.158;2022-10-16T00:08:54;14.37;;;5.37;;
20758;SDS011;10539;53.686;9.158;2022-10-16T00:11:21;11.97;;;5.30;;
20758;SDS011;10539;53.686;9.158;2022-10-16T00:13:51;9.23;;;4.87;;
20758;SDS011;10539;53.686;9.158;2022-10-16T00:16:19;10.77;;;4.80;;
20758;SDS011;10539;53.686;9.158;2022-10-16T00:18:45;11.90;;;5.30;;
20758;SDS011;10539;53.686;9.158;2022-10-16T00:21:13;9.30;;;4.90;;
20758;SDS011;10539;53.686;9.158;2022-10-16T00:23:41;10.47;;;4.77;;
20758;SDS011;10539;53.686;9.158;2022-10-16T00:26:08;7.97;;;4.73;;
20758;SDS011;10539;53.686;9.158;2022-10-16T00:28:36;10.17;;;4.50;;
20758;SDS011;10539;53.686;9.158;2022-10-16T00:31:06;18.80;;;6.00;;
20758;SDS011;10539;53.686;9.158;2022-10-16T00:33:34;11.80;;;4.33;;
20758;SDS011;10539;53.686;9.158;2022-10-16T00:36:00;8.73;;;4.50;;
20758;SDS011;10539;53.686;9.158;2022-10-16T00:38:26;9.57;;;4.27;;
20758;SDS011;10539;53.686;9.158;2022-10-16T00:40:52;10.50;;;4.70;;
20758;SDS011;10539;53.686;9.158;2022-10-16T00:46:15;11.93;;;4.37;;
20758;SDS011;10539;53.686;9.158;2022-10-16T00:48:48;10.57;;;4.70;;
20758;SDS011;10539;53.686;9.158;2022-10-16T00:51:30;11.00;;;4.20;;
20758;SDS011;10539;53.686;9.158;2022-10-16T00:53:58;8.97;;;4.10;;
20758;SDS011;10539;53.686;9.158;2022-10-16T00:56:24;6.80;;;4.30;;
20758;SDS011;10539;53.686;9.158;2022-10-16T00:58:51;6.53;;;4.20;;
20758;SDS011;10539;53.686;9.158;2022-10-16T01:01:17;8.63;;;4.30;;
20758;SDS011;10539;53.686;9.158;2022-10-16T01:03:42;10.20;;;4.60;;
20758;SDS011;10539;53.686;9.158;2022-10-16T01:06:19;8.13;;;3.87;;
20758;SDS011;10539;53.686;9.158;2022-10-16T01:09:02;10.73;;;3.53;;
20758;SDS011;10539;53.686;9.158;2022-10-16T01:12:12;7.37;;;3.97;;
20758;SDS011;10539;53.686;9.158;2022-10-16T01:14:46;9.07;;;3.87;;
20758;SDS011;10539;53.686;9.158;2022-10-16T01:17:20;8.57;;;3.83;;
20758;SDS011;10539;53.686;9.158;2022-10-16T01:20:04;9.40;;;4.20;;
20758;SDS011;10539;53.686;9.158;2022-10-16T01:22:54;9.50;;;3.33;;
20758;SDS011;10539;53.686;9.158;2022-10-16T01:31:08;6.93;;;3.00;;
20758;SDS011;10539;53.686;9.158;2022-10-16T01:33:40;9.13;;;2.73;;
20758;SDS011;10539;53.686;9.158;2022-10-16T01:36:10;6.20;;;2.80;;
20758;SDS011;10539;53.686;9.158;2022-10-16T01:38:40;5.90;;;2.93;;
20758;SDS011;10539;53.686;9.158;2022-10-16T01:41:13;6.60;;;2.90;;
20758;SDS011;10539;53.686;9.158;2022-10-16T01:43:48;8.57;;;3.00;;
20758;SDS011;10539;53.686;9.158;2022-10-16T01:46:18;8.10;;;2.57;;
20758;SDS011;10539;53.686;9.158;2022-10-16T01:48:48;5.40;;;2.87;;
20758;SDS011;10539;53.686;9.158;2022-10-16T01:51:14;7.97;;;2.97;;
20758;SDS011;10539;53.686;9.158;2022-10-16T01:53:43;8.97;;;2.53;;
20758;SDS011;10539;53.686;9.158;2022-10-16T01:56:12;5.90;;;2.37;;
20758;SDS011;10539;53.686;9.158;2022-10-16T01:58:45;8.47;;;2.10;;
20758;SDS011;10539;53.686;9.158;2022-10-16T02:01:14;4.90;;;2.57;;
20758;SDS011;10539;53.686;9.158;2022-10-16T02:03:43;6.00;;;2.47;;
20758;SDS011;10539;53.686;9.158;2022-10-16T02:06:11;7.10;;;2.43;;
20758;SDS011;10539;53.686;9.158;2022-10-16T02:08:37;3.93;;;2.30;;
20758;SDS011;10539;53.686;9.158;2022-10-16T02:11:05;7.07;;;2.90;;
20758;SDS011;10539;53.686;9.158;2022-10-16T02:13:42;9.13;;;2.50;;
20758;SDS011;10539;53.686;9.158;2022-10-16T02:16:26;5.73;;;2.47;;
20758;SDS011;10539;53.686;9.158;2022-10-16T02:19:09;7.20;;;2.40;;
20758;SDS011;10539;53.686;9.158;2022-10-16T02:21:53;4.80;;;1.97;;
20758;SDS011;10539;53.686;9.158;2022-10-16T02:29:28;6.53;;;2.30;;
20758;SDS011;10539;53.686;9.158;2022-10-16T02:31:55;7.47;;;2.30;;
20758;SDS011;10539;53.686;9.158;2022-10-16T02:34:24;3.57;;;1.80;;
20758;SDS011;10539;53.686;9.158;2022-10-16T02:36:52;6.60;;;2.37;;
20758;SDS011;10539;53.686;9.158;2022-10-16T02:39:20;4.23;;;1.97;;
20758;SDS011;10539;53.686;9.158;2022-10-16T02:41:46;6.43;;;2.27;;
20758;SDS011;10539;53.686;9.158;2022-10-16T02:44:12;6.90;;;2.13;;
20758;SDS011;10539;53.686;9.158;2022-10-16T02:46:38;6.97;;;2.27;;
20758;SDS011;10539;53.686;9.158;2022-10-16T02:49:04;5.90;;;2.00;;
20758;SDS011;10539;53.686;9.158;2022-10-16T02:51:30;6.33;;;2.13;;
20758;SDS011;10539;53.686;9.158;2022-10-16T02:53:55;7.83;;;2.60;;
20758;SDS011;10539;53.686;9.158;2022-10-16T02:56:21;4.80;;;2.33;;
20758;SDS011;10539;53.686;9.158;2022-10-16T02:58:47;8.07;;;2.27;;
20758;SDS011;10539;53.686;9.158;2022-10-16T03:01:13;4.57;;;2.77;;
20758;SDS011;10539;53.686;9.158;2022-10-16T03:03:41;7.07;;;2.80;;
20758;SDS011;10539;53.686;9.158;2022-10-16T03:06:07;5.73;;;2.30;;
20758;SDS011;10539;53.686;9.158;2022-10-16T03:08:33;5.97;;;2.60;;
20758;SDS011;10539;53.686;9.158;2022-10-16T03:10:59;7.93;;;2.37;;
20758;SDS011;10539;53.686;9.158;2022-10-16T03:13:25;5.53;;;2.40;;
20758;SDS011;10539;53.686;9.158;2022-10-16T03:15:50;5.87;;;2.40;;
20758;SDS011;10539;53.686;9.158;2022-10-16T03:18:16;6.63;;;2.30;;
20758;SDS011;10539;53.686;9.158;2022-10-16T03:20:43;8.40;;;2.50;;
20758;SDS011;10539;53.686;9.158;2022-10-16T03:23:09;5.90;;;2.57;;
20758;SDS011;10539;53.686;9.158;2022-10-16T03:25:35;6.07;;;2.83;;
20758;SDS011;10539;53.686;9.158;2022-10-16T03:28:01;6.27;;;2.57;;
20758;SDS011;10539;53.686;9.158;2022-10-16T03:30:27;6.83;;;2.70;;
20758;SDS011;10539;53.686;9.158;2022-10-16T03:32:52;6.13;;;2.30;;
20758;SDS011;10539;53.686;9.158;2022-10-16T03:35:22;4.43;;;2.43;;
20758;SDS011;10539;53.686;9.158;2022-10-16T03:37:48;6.10;;;2.13;;
20758;SDS011;10539;53.686;9.158;2022-10-16T03:40:14;7.57;;;2.33;;
20758;SDS011;10539;53.686;9.158;2022-10-16T03:42:44;3.73;;;1.90;;
20758;SDS011;10539;53.686;9.158;2022-10-16T03:45:12;3.40;;;2.13;;
20758;SDS011;10539;53.686;9.158;2022-10-16T03:47:38;8.03;;;2.23;;
20758;SDS011;10539;53.686;9.158;2022-10-16T03:50:04;4.17;;;1.80;;
20758;SDS011;10539;53.686;9.158;2022-10-16T03:52:33;7.83;;;2.20;;
20758;SDS011;10539;53.686;9.158;2022-10-16T03:54:59;3.70;;;1.83;;
20758;SDS011;10539;53.686;9.158;2022-10-16T03:57:25;5.33;;;1.67;;
20758;SDS011;10539;53.686;9.158;2022-10-16T03:59:51;3.17;;;1.87;;
20758;SDS011;10539;53.686;9.158;2022-10-16T04:02:16;5.53;;;2.00;;
20758;SDS011;10539;53.686;9.158;2022-10-16T04:04:42;5.27;;;2.10;;
20758;SDS011;10539;53.686;9.158;2022-10-16T04:07:10;3.97;;;1.87;;
20758;SDS011;10539;53.686;9.158;2022-10-16T04:09:36;4.50;;;1.60;;
20758;SDS011;10539;53.686;9.158;2022-10-16T04:12:02;6.57;;;1.43;;
20758;SDS011;10539;53.686;9.158;2022-10-16T04:14:28;3.50;;;1.90;;
20758;SDS011;10539;53.686;9.158;2022-10-16T04:16:53;5.33;;;2.03;;
20758;SDS011;10539;53.686;9.158;2022-10-16T04:19:19;7.30;;;1.90;;
20758;SDS011;10539;53.686;9.158;2022-10-16T04:21:45;7.00;;;2.07;;
20758;SDS011;10539;53.686;9.158;2022-10-16T04:24:11;5.00;;;1.77;;
20758;SDS011;10539;53.686;9.158;2022-10-16T04:26:37;4.80;;;1.93;;
20758;SDS011;10539;53.686;9.158;2022-10-16T04:29:05;7.63;;;1.93;;
20758;SDS011;10539;53.686;9.158;2022-10-16T04:31:35;3.27;;;1.90;;
20758;SDS011;10539;53.686;9.158;2022-10-16T04:34:00;3.27;;;1.50;;
20758;SDS011;10539;53.686;9.158;2022-10-16T04:36:26;5.27;;;1.77;;
20758;SDS011;10539;53.686;9.158;2022-10-16T04:38:55;6.77;;;2.17;;
20758;SDS011;10539;53.686;9.158;2022-10-16T04:41:21;5.17;;;1.60;;
20758;SDS011;10539;53.686;9.158;2022-10-16T04:43:49;7.50;;;2.07;;
20758;SDS011;10539;53.686;9.158;2022-10-16T04:46:17;6.73;;;2.30;;
20758;SDS011;10539;53.686;9.158;2022-10-16T04:48:44;4.23;;;1.70;;
20758;SDS011;10539;53.686;9.158;2022-10-16T04:51:11;4.37;;;2.10;;
20758;SDS011;10539;53.686;9.158;2022-10-16T04:53:37;6.40;;;2.30;;
20758;SDS011;10539;53.686;9.158;2022-10-16T04:56:07;7.03;;;1.90;;
20758;SDS011;10539;53.686;9.158;2022-10-16T04:58:33;5.83;;;1.70;;
20758;SDS011;10539;53.686;9.158;2022-10-16T05:00:59;4.67;;;2.27;;
20758;SDS011;10539;53.686;9.158;2022-10-16T05:03:27;6.20;;;1.67;;
20758;SDS011;10539;53.686;9.158;2022-10-16T05:05:53;5.07;;;2.00;;
20758;SDS011;10539;53.686;9.158;2022-10-16T05:08:20;4.83;;;1.90;;
20758;SDS011;10539;53.686;9.158;2022-10-16T05:10:46;3.87;;;1.50;;
20758;SDS011;10539;53.686;9.158;2022-10-16T05:13:11;3.53;;;1.57;;
20758;SDS011;10539;53.686;9.158;2022-10-16T05:15:37;4.20;;;1.70;;
20758;SDS011;10539;53.686;9.158;2022-10-16T05:18:03;5.03;;;1.80;;
20758;SDS011;10539;53.686;9.158;2022-10-16T05:20:29;4.00;;;1.83;;
20758;SDS011;10539;53.686;9.158;2022-10-16T05:22:55;4.47;;;1.83;;
20758;SDS011;10539;53.686;9.158;2022-10-16T05:25:21;7.73;;;2.10;;
20758;SDS011;10539;53.686;9.158;2022-10-16T05:27:47;4.67;;;1.90;;
20758;SDS011;10539;53.686;9.158;2022-10-16T05:30:14;7.50;;;2.03;;
20758;SDS011;10539;53.686;9.158;2022-10-16T05:32:40;8.17;;;2.20;;
20758;SDS011;10539;53.686;9.158;2022-10-16T05:35:06;4.73;;;2.17;;
20758;SDS011;10539;53.686;9.158;2022-10-16T05:37:32;6.00;;;2.20;;
20758;SDS011;10539;53.686;9.158;2022-10-16T05:39:57;3.23;;;2.30;;
20758;SDS011;10539;53.686;9.158;2022-10-16T05:42:23;4.90;;;2.10;;
20758;SDS011;10539;53.686;9.158;2022-10-16T05:44:49;4.13;;;2.03;;
20758;SDS011;10539;53.686;9.158;2022-10-16T05:47:15;7.37;;;2.80;;
20758;SDS011;10539;53.686;9.158;2022-10-16T05:49:40;7.00;;;2.20;;
20758;SDS011;10539;53.686;9.158;2022-10-16T05:52:06;4.67;;;2.50;;
20758;SDS011;10539;53.686;9.158;2022-10-16T05:54:32;6.07;;;2.57;;
20758;SDS011;10539;53.686;9.158;2022-10-16T05:56:58;5.47;;;2.70;;
20758;SDS011;10539;53.686;9.158;2022-10-16T05:59:23;5.87;;;2.50;;
20758;SDS011;10539;53.686;9.158;2022-10-16T06:01:49;7.03;;;2.87;;
20758;SDS011;10539;53.686;9.158;2022-10-16T06:04:15;5.43;;;2.60;;
20758;SDS011;10539;53.686;9.158;2022-10-16T06:06:40;8.10;;;2.83;;
20758;SDS011;10539;53.686;9.158;2022-10-16T06:09:06;4.93;;;2.77;;
20758;SDS011;10539;53.686;9.158;2022-10-16T06:11:32;5.47;;;3.40;;
20758;SDS011;10539;53.686;9.158;2022-10-16T06:14:00;5.70;;;2.90;;
20758;SDS011;10539;53.686;9.158;2022-10-16T06:16:27;8.93;;;3.07;;
20758;SDS011;10539;53.686;9.158;2022-10-16T06:18:54;6.63;;;3.57;;
20758;SDS011;10539;53.686;9.158;2022-10-16T06:21:22;6.80;;;3.53;;
20758;SDS011;10539;53.686;9.158;2022-10-16T06:23:52;9.33;;;3.33;;
20758;SDS011;10539;53.686;9.158;2022-10-16T06:26:20;7.43;;;4.10;;
20758;SDS011;10539;53.686;9.158;2022-10-16T06:28:48;7.73;;;3.97;;
20758;SDS011;10539;53.686;9.158;2022-10-16T06:31:14;7.37;;;3.67;;
20758;SDS011;10539;53.686;9.158;2022-10-16T06:33:41;10.40;;;3.60;;
20758;SDS011;10539;53.686;9.158;2022-10-16T06:36:11;7.23;;;3.90;;
20758;SDS011;10539;53.686;9.158;2022-10-16T06:38:39;7.37;;;3.80;;
20758;SDS011;10539;53.686;9.158;2022-10-16T06:41:07;10.77;;;4.90;;
20758;SDS011;10539;53.686;9.158;2022-10-16T06:43:33;7.47;;;4.30;;
20758;SDS011;10539;53.686;9.158;2022-10-16T06:46:02;7.80;;;4.50;;
20758;SDS011;10539;53.686;9.158;2022-10-16T06:48:29;8.23;;;4.47;;
20758;SDS011;10539;53.686;9.158;2022-10-16T06:53:29;8.53;;;4.93;;
20758;SDS011;10539;53.686;9.158;2022-10-16T06:55:57;8.40;;;4.80;;
20758;SDS011;10539;53.686;9.158;2022-10-16T06:58:23;10.57;;;5.13;;
20758;SDS011;10539;53.686;9.158;2022-10-16T07:00:54;9.33;;;4.40;;
20758;SDS011;10539;53.686;9.158;2022-10-16T07:03:21;12.00;;;5.07;;
20758;SDS011;10539;53.686;9.158;2022-10-16T07:05:46;10.60;;;5.07;;
20758;SDS011;10539;53.686;9.158;2022-10-16T07:08:12;12.63;;;5.77;;
20758;SDS011;10539;53.686;9.158;2022-10-16T07:10:38;9.97;;;5.30;;
20758;SDS011;10539;53.686;9.158;2022-10-16T07:13:04;12.50;;;5.80;;
20758;SDS011;10539;53.686;9.158;2022-10-16T07:15:29;8.93;;;5.10;;
20758;SDS011;10539;53.686;9.158;2022-10-16T07:17:55;8.53;;;5.03;;
20758;SDS011;10539;53.686;9.158;2022-10-16T07:20:21;11.13;;;4.87;;
20758;SDS011;10539;53.686;9.158;2022-10-16T07:22:46;7.57;;;4.70;;
20758;SDS011;10539;53.686;9.158;2022-10-16T07:25:12;8.10;;;4.53;;
20758;SDS011;10539;53.686;9.158;2022-10-16T07:27:38;7.10;;;4.77;;
20758;SDS011;10539;53.686;9.158;2022-10-16T07:30:04;12.87;;;5.30;;
20758;SDS011;10539;53.686;9.158;2022-10-16T07:32:30;15.43;;;4.93;;
20758;SDS011;10539;53.686;9.158;2022-10-16T07:34:56;10.47;;;4.87;;
20758;SDS011;10539;53.686;9.158;2022-10-16T07:37:22;10.20;;;5.30;;
20758;SDS011;10539;53.686;9.158;2022-10-16T07:39:48;10.23;;;5.40;;
20758;SDS011;10539;53.686;9.158;2022-10-16T07:42:14;10.23;;;5.60;;
20758;SDS011;10539;53.686;9.158;2022-10-16T07:44:40;8.93;;;4.90;;
20758;SDS011;10539;53.686;9.158;2022-10-16T07:47:06;11.10;;;5.20;;
20758;SDS011;10539;53.686;9.158;2022-10-16T07:49:32;9.00;;;5.40;;
20758;SDS011;10539;53.686;9.158;2022-10-16T07:51:58;9.60;;;5.13;;
20758;SDS011;10539;53.686;9.158;2022-10-16T07:54:24;9.53;;;5.20;;
20758;SDS011;10539;53.686;9.158;2022-10-16T07:56:49;7.40;;;4.53;;
20758;SDS011;10539;53.686;9.158;2022-10-16T07:59:15;9.43;;;4.93;;
20758;SDS011;10539;53.686;9.158;2022-10-16T08:01:42;7.73;;;4.80;;
20758;SDS011;10539;53.686;9.158;2022-10-16T08:04:08;10.27;;;5.20;;
20758;SDS011;10539;53.686;9.158;2022-10-16T08:06:37;9.67;;;4.57;;
20758;SDS011;10539;53.686;9.158;2022-10-16T08:09:04;8.30;;;4.90;;
20758;SDS011;10539;53.686;9.158;2022-10-16T08:11:31;11.20;;;4.20;;
20758;SDS011;10539;53.686;9.158;2022-10-16T08:13:57;10.07;;;4.57;;
20758;SDS011;10539;53.686;9.158;2022-10-16T08:16:22;12.57;;;5.20;;
20758;SDS011;10539;53.686;9.158;2022-10-16T08:18:49;6.93;;;4.70;;
20758;SDS011;10539;53.686;9.158;2022-10-16T08:21:17;9.03;;;4.77;;
20758;SDS011;10539;53.686;9.158;2022-10-16T08:23:48;6.27;;;4.10;;
20758;SDS011;10539;53.686;9.158;2022-10-16T08:26:14;11.57;;;4.00;;
20758;SDS011;10539;53.686;9.158;2022-10-16T08:28:39;9.43;;;4.07;;
20758;SDS011;10539;53.686;9.158;2022-10-16T08:31:09;8.73;;;3.80;;
20758;SDS011;10539;53.686;9.158;2022-10-16T08:33:37;9.33;;;4.07;;
20758;SDS011;10539;53.686;9.158;2022-10-16T08:36:04;8.40;;;4.00;;
20758;SDS011;10539;53.686;9.158;2022-10-16T08:38:30;7.20;;;3.70;;
20758;SDS011;10539;53.686;9.158;2022-10-16T08:41:00;9.97;;;4.20;;
20758;SDS011;10539;53.686;9.158;2022-10-16T08:49:10;9.20;;;3.93;;
20758;SDS011;10539;53.686;9.158;2022-10-16T08:51:38;4.57;;;3.00;;
20758;SDS011;10539;53.686;9.158;2022-10-16T08:54:14;7.97;;;3.40;;
20758;SDS011;10539;53.686;9.158;2022-10-16T08:56:56;5.40;;;2.93;;
20758;SDS011;10539;53.686;9.158;2022-10-16T08:59:26;7.67;;;3.23;;
20758;SDS011;10539;53.686;9.158;2022-10-16T09:01:51;7.37;;;3.30;;
20758;SDS011;10539;53.686;9.158;2022-10-16T09:07:16;7.90;;;2.47;;
20758;SDS011;10539;53.686;9.158;2022-10-16T09:09:53;5.77;;;2.53;;
20758;SDS011;10539;53.686;9.158;2022-10-16T09:17:58;5.43;;;2.20;;
20758;SDS011;10539;53.686;9.158;2022-10-16T09:23:34;6.77;;;2.07;;
20758;SDS011;10539;53.686;9.158;2022-10-16T09:26:01;7.40;;;2.50;;
20758;SDS011;10539;53.686;9.158;2022-10-16T09:28:29;8.00;;;2.30;;
20758;SDS011;10539;53.686;9.158;2022-10-16T09:30:54;7.93;;;2.40;;
20758;SDS011;10539;53.686;9.158;2022-10-16T09:33:22;6.67;;;2.33;;
20758;SDS011;10539;53.686;9.158;2022-10-16T09:35:53;6.37;;;2.43;;
20758;SDS011;10539;53.686;9.158;2022-10-16T09:38:31;7.37;;;2.47;;
20758;SDS011;10539;53.686;9.158;2022-10-16T09:41:01;5.67;;;2.10;;
20758;SDS011;10539;53.686;9.158;2022-10-16T09:43:57;2.63;;;1.90;;
20758;SDS011;10539;53.686;9.158;2022-10-16T09:46:32;5.90;;;2.10;;
20758;SDS011;10539;53.686;9.158;2022-10-16T09:49:17;4.80;;;1.90;;
20758;SDS011;10539;53.686;9.158;2022-10-16T09:51:46;4.10;;;1.70;;
20758;SDS011;10539;53.686;9.158;2022-10-16T09:56:42;4.70;;;1.40;;
20758;SDS011;10539;53.686;9.158;2022-10-16T09:59:28;5.40;;;1.50;;
20758;SDS011;10539;53.686;9.158;2022-10-16T10:01:56;11.03;;;1.80;;
20758;SDS011;10539;53.686;9.158;2022-10-16T10:04:36;5.37;;;1.33;;
20758;SDS011;10539;53.686;9.158;2022-10-16T10:07:05;6.17;;;1.50;;
20758;SDS011;10539;53.686;9.158;2022-10-16T10:09:33;5.57;;;1.43;;
20758;SDS011;10539;53.686;9.158;2022-10-16T10:12:04;4.30;;;1.23;;
20758;SDS011;10539;53.686;9.158;2022-10-16T10:14:38;7.07;;;1.40;;
20758;SDS011;10539;53.686;9.158;2022-10-16T10:17:17;5.73;;;1.40;;
20758;SDS011;10539;53.686;9.158;2022-10-16T10:22:16;2.70;;;1.13;;
20758;SDS011;10539;53.686;9.158;2022-10-16T10:35:52;6.80;;;1.10;;
20758;SDS011;10539;53.686;9.158;2022-10-16T10:38:45;3.20;;;1.10;;
20758;SDS011;10539;53.686;9.158;2022-10-16T10:44:06;7.77;;;2.50;;
20758;SDS011;10539;53.686;9.158;2022-10-16T10:46:51;5.03;;;1.23;;
20758;SDS011;10539;53.686;9.158;2022-10-16T10:49:32;7.57;;;1.50;;
20758;SDS011;10539;53.686;9.158;2022-10-16T10:52:11;5.73;;;1.27;;
20758;SDS011;10539;53.686;9.158;2022-10-16T10:54:59;6.20;;;1.17;;
20758;SDS011;10539;53.686;9.158;2022-10-16T11:00:28;4.17;;;1.10;;
20758;SDS011;10539;53.686;9.158;2022-10-16T11:05:56;6.10;;;1.13;;
20758;SDS011;10539;53.686;9.158;2022-10-16T11:08:35;3.37;;;0.80;;
20758;SDS011;10539;53.686;9.158;2022-10-16T11:14:34;6.97;;;1.10;;
20758;SDS011;10539;53.686;9.158;2022-10-16T11:17:27;5.03;;;0.90;;
20758;SDS011;10539;53.686;9.158;2022-10-16T11:19:58;5.37;;;0.87;;
20758;SDS011;10539;53.686;9.158;2022-10-16T11:22:37;3.33;;;0.73;;
20758;SDS011;10539;53.686;9.158;2022-10-16T11:25:12;4.67;;;1.27;;
20758;SDS011;10539;53.686;9.158;2022-10-16T11:30:49;4.87;;;1.97;;
20758;SDS011;10539;53.686;9.158;2022-10-16T11:33:27;5.17;;;1.37;;
20758;SDS011;10539;53.686;9.158;2022-10-16T11:36:06;6.60;;;1.90;;
20758;SDS011;10539;53.686;9.158;2022-10-16T11:39:16;3.80;;;0.90;;
20758;SDS011;10539;53.686;9.158;2022-10-16T11:47:35;4.87;;;1.20;;
20758;SDS011;10539;53.686;9.158;2022-10-16T11:55:41;4.43;;;1.23;;
20758;SDS011;10539;53.686;9.158;2022-10-16T12:00:43;11.53;;;1.63;;
20758;SDS011;10539;53.686;9.158;2022-10-16T12:03:29;7.37;;;1.07;;
20758;SDS011;10539;53.686;9.158;2022-10-16T12:08:52;3.97;;;1.37;;
20758;SDS011;10539;53.686;9.158;2022-10-16T12:16:38;6.37;;;1.20;;
20758;SDS011;10539;53.686;9.158;2022-10-16T12:19:17;6.33;;;1.00;;
20758;SDS011;10539;53.686;9.158;2022-10-16T12:21:44;6.03;;;0.90;;
20758;SDS011;10539;53.686;9.158;2022-10-16T12:27:01;10.03;;;1.13;;
20758;SDS011;10539;53.686;9.158;2022-10-16T12:29:32;5.23;;;0.90;;
20758;SDS011;10539;53.686;9.158;2022-10-16T12:32:04;6.93;;;0.50;;
20758;SDS011;10539;53.686;9.158;2022-10-16T12:34:43;6.23;;;0.97;;
20758;SDS011;10539;53.686;9.158;2022-10-16T12:37:11;8.20;;;1.27;;
20758;SDS011;10539;53.686;9.158;2022-10-16T12:39:44;4.33;;;0.97;;
20758;SDS011;10539;53.686;9.158;2022-10-16T12:42:31;2.70;;;1.37;;
20758;SDS011;10539;53.686;9.158;2022-10-16T12:44:59;2.13;;;0.93;;
20758;SDS011;10539;53.686;9.158;2022-10-16T12:49:58;5.10;;;0.83;;
20758;SDS011;10539;53.686;9.158;2022-10-16T12:54:59;8.10;;;1.10;;
20758;SDS011;10539;53.686;9.158;2022-10-16T13:00:21;7.67;;;1.93;;
20758;SDS011;10539;53.686;9.158;2022-10-16T13:03:11;6.50;;;1.17;;
20758;SDS011;10539;53.686;9.158;2022-10-16T13:11:28;7.40;;;0.83;;
20758;SDS011;10539;53.686;9.158;2022-10-16T13:19:53;4.77;;;1.03;;
20758;SDS011;10539;53.686;9.158;2022-10-16T13:22:37;6.10;;;1.13;;
20758;SDS011;10539;53.686;9.158;2022-10-16T13:25:43;4.80;;;0.87;;
20758;SDS011;10539;53.686;9.158;2022-10-16T13:28:13;6.90;;;0.80;;
20758;SDS011;10539;53.686;9.158;2022-10-16T13:30:44;5.70;;;0.93;;
20758;SDS011;10539;53.686;9.158;2022-10-16T13:33:27;4.43;;;0.90;;
20758;SDS011;10539;53.686;9.158;2022-10-16T13:36:00;8.63;;;1.13;;
20758;SDS011;10539;53.686;9.158;2022-10-16T13:38:28;7.63;;;1.00;;
20758;SDS011;10539;53.686;9.158;2022-10-16T13:43:27;9.47;;;1.23;;
20758;SDS011;10539;53.686;9.158;2022-10-16T13:46:00;4.80;;;1.03;;
20758;SDS011;10539;53.686;9.158;2022-10-16T13:48:27;6.47;;;1.20;;
20758;SDS011;10539;53.686;9.158;2022-10-16T13:51:04;5.90;;;0.97;;
20758;SDS011;10539;53.686;9.158;2022-10-16T13:53:38;5.13;;;0.93;;
20758;SDS011;10539;53.686;9.158;2022-10-16T13:56:05;7.47;;;1.00;;
20758;SDS011;10539;53.686;9.158;2022-10-16T13:58:35;4.00;;;1.00;;
20758;SDS011;10539;53.686;9.158;2022-10-16T14:01:03;4.67;;;0.97;;
20758;SDS011;10539;53.686;9.158;2022-10-16T14:03:31;10.13;;;1.07;;
20758;SDS011;10539;53.686;9.158;2022-10-16T14:05:59;5.70;;;0.80;;
20758;SDS011;10539;53.686;9.158;2022-10-16T14:08:28;6.20;;;1.23;;
20758;SDS011;10539;53.686;9.158;2022-10-16T14:11:04;3.73;;;1.00;;
20758;SDS011;10539;53.686;9.158;2022-10-16T14:13:34;4.40;;;0.83;;
20758;SDS011;10539;53.686;9.158;2022-10-16T14:16:09;4.27;;;1.03;;
20758;SDS011;10539;53.686;9.158;2022-10-16T14:18:37;3.80;;;1.30;;
20758;SDS011;10539;53.686;9.158;2022-10-16T14:21:11;4.63;;;1.10;;
20758;SDS011;10539;53.686;9.158;2022-10-16T14:23:40;7.03;;;1.63;;
20758;SDS011;10539;53.686;9.158;2022-10-16T14:28:39;8.13;;;1.60;;
20758;SDS011;10539;53.686;9.158;2022-10-16T14:31:28;6.60;;;1.07;;
20758;SDS011;10539;53.686;9.158;2022-10-16T14:33:57;5.87;;;1.00;;
20758;SDS011;10539;53.686;9.158;2022-10-16T14:36:23;6.37;;;1.10;;
20758;SDS011;10539;53.686;9.158;2022-10-16T14:38:54;7.20;;;1.03;;
20758;SDS011;10539;53.686;9.158;2022-10-16T14:41:26;5.63;;;1.00;;
20758;SDS011;10539;53.686;9.158;2022-10-16T14:44:03;4.20;;;1.20;;
20758;SDS011;10539;53.686;9.158;2022-10-16T14:46:31;11.10;;;1.40;;
20758;SDS011;10539;53.686;9.158;2022-10-16T14:51:39;5.40;;;1.07;;
20758;SDS011;10539;53.686;9.158;2022-10-16T14:54:14;10.53;;;1.37;;
20758;SDS011;10539;53.686;9.158;2022-10-16T14:56:46;7.47;;;1.30;;
20758;SDS011;10539;53.686;9.158;2022-10-16T14:59:14;4.80;;;0.80;;
20758;SDS011;10539;53.686;9.158;2022-10-16T15:01:50;6.77;;;1.33;;
20758;SDS011;10539;53.686;9.158;2022-10-16T15:04:16;5.87;;;0.93;;
20758;SDS011;10539;53.686;9.158;2022-10-16T15:06:42;7.50;;;1.07;;
20758;SDS011;10539;53.686;9.158;2022-10-16T15:09:08;4.50;;;0.87;;
20758;SDS011;10539;53.686;9.158;2022-10-16T15:11:34;4.50;;;1.23;;
20758;SDS011;10539;53.686;9.158;2022-10-16T15:14:00;6.50;;;0.90;;
20758;SDS011;10539;53.686;9.158;2022-10-16T15:16:26;5.63;;;1.20;;
20758;SDS011;10539;53.686;9.158;2022-10-16T15:18:52;8.93;;;1.20;;
20758;SDS011;10539;53.686;9.158;2022-10-16T15:21:28;5.73;;;0.90;;
20758;SDS011;10539;53.686;9.158;2022-10-16T15:23:56;9.57;;;1.57;;
20758;SDS011;10539;53.686;9.158;2022-10-16T15:26:23;4.57;;;1.10;;
20758;SDS011;10539;53.686;9.158;2022-10-16T15:28:50;8.07;;;1.30;;
20758;SDS011;10539;53.686;9.158;2022-10-16T15:31:15;5.43;;;0.87;;
20758;SDS011;10539;53.686;9.158;2022-10-16T15:33:41;4.70;;;1.00;;
20758;SDS011;10539;53.686;9.158;2022-10-16T15:36:07;5.70;;;1.57;;
20758;SDS011;10539;53.686;9.158;2022-10-16T15:38:33;7.20;;;1.40;;
20758;SDS011;10539;53.686;9.158;2022-10-16T15:40:59;5.73;;;1.00;;
20758;SDS011;10539;53.686;9.158;2022-10-16T15:43:25;4.67;;;1.03;;
20758;SDS011;10539;53.686;9.158;2022-10-16T15:46:01;3.27;;;0.80;;
20758;SDS011;10539;53.686;9.158;2022-10-16T15:48:29;5.80;;;1.20;;
20758;SDS011;10539;53.686;9.158;2022-10-16T15:50:55;4.40;;;1.10;;
20758;SDS011;10539;53.686;9.158;2022-10-16T15:53:21;5.93;;;1.10;;
20758;SDS011;10539;53.686;9.158;2022-10-16T15:55:47;5.30;;;0.80;;
20758;SDS011;10539;53.686;9.158;2022-10-16T15:58:13;7.23;;;1.17;;
20758;SDS011;10539;53.686;9.158;2022-10-16T16:00:39;9.23;;;1.53;;
20758;SDS011;10539;53.686;9.158;2022-10-16T16:03:04;9.07;;;0.93;;
20758;SDS011;10539;53.686;9.158;2022-10-16T16:05:30;4.93;;;0.90;;
20758;SDS011;10539;53.686;9.158;2022-10-16T16:07:56;5.80;;;0.90;;
20758;SDS011;10539;53.686;9.158;2022-10-16T16:10:22;4.40;;;0.87;;
20758;SDS011;10539;53.686;9.158;2022-10-16T16:12:48;9.10;;;1.33;;
20758;SDS011;10539;53.686;9.158;2022-10-16T16:15:17;7.00;;;1.07;;
20758;SDS011;10539;53.686;9.158;2022-10-16T16:17:47;2.60;;;0.80;;
20758;SDS011;10539;53.686;9.158;2022-10-16T16:20:14;6.83;;;1.40;;
20758;SDS011;10539;53.686;9.158;2022-10-16T16:22:40;9.73;;;1.47;;
20758;SDS011;10539;53.686;9.158;2022-10-16T16:25:06;6.43;;;1.43;;
20758;SDS011;10539;53.686;9.158;2022-10-16T16:27:32;6.60;;;0.97;;
20758;SDS011;10539;53.686;9.158;2022-10-16T16:30:03;11.53;;;1.30;;
20758;SDS011;10539;53.686;9.158;2022-10-16T16:32:32;7.90;;;1.20;;
20758;SDS011;10539;53.686;9.158;2022-10-16T16:34:59;7.03;;;1.23;;
20758;SDS011;10539;53.686;9.158;2022-10-16T16:37:24;8.03;;;1.70;;
20758;SDS011;10539;53.686;9.158;2022-10-16T16:39:50;5.10;;;1.00;;
20758;SDS011;10539;53.686;9.158;2022-10-16T16:42:16;5.80;;;1.03;;
20758;SDS011;10539;53.686;9.158;2022-10-16T16:44:42;6.80;;;1.30;;
20758;SDS011;10539;53.686;9.158;2022-10-16T16:47:08;8.07;;;1.57;;
20758;SDS011;10539;53.686;9.158;2022-10-16T16:49:34;6.13;;;0.97;;
20758;SDS011;10539;53.686;9.158;2022-10-16T16:52:00;8.43;;;1.20;;
20758;SDS011;10539;53.686;9.158;2022-10-16T16:54:26;6.87;;;1.10;;
20758;SDS011;10539;53.686;9.158;2022-10-16T16:56:52;9.13;;;1.27;;